SWR18M EHAM-LSZH
Flight info
| Callsign | SWR18M |
|---|---|
| Flight time | N/A |
| Altitude | 35000 |
| Route | EDUPO Z739 MISGO DCT ASBON DCT TUSUK DCT LAMGO/N0453F270 T721 SUL/N0440F250 T721 RILAX |
| Aircraft | A320/M-SDE3FGHIRWY/LB1 |
Departure
| Time | 2026-04-27 12:59 |
|---|---|
| Airport | Amsterdam Airport Schiphol (EHAM) |
Arrival
| Time | N/A |
|---|---|
| Airport | Zürich Airport (LSZH) |
| Time | Latitude | Longitude | Altitude | Speed | Heading |
|---|---|---|---|---|---|
| 2026-04-27 12:26 | 52.30467 | 4.76567 | -1 ft | 0 kts | 59° |
| 2026-04-27 12:38 | 52.30465 | 4.76560 | -1 ft | 2 kts | 59° |
| 2026-04-27 12:38 | 52.30456 | 4.76536 | -1 ft | 2 kts | 66° |
| 2026-04-27 12:38 | 52.30448 | 4.76512 | -1 ft | 2 kts | 79° |
| 2026-04-27 12:39 | 52.30450 | 4.76487 | -1 ft | 1 kts | 142° |
| 2026-04-27 12:42 | 52.30444 | 4.76494 | -1 ft | 5 kts | 142° |
| 2026-04-27 12:42 | 52.30418 | 4.76527 | -1 ft | 4 kts | 142° |
| 2026-04-27 12:43 | 52.30397 | 4.76551 | -1 ft | 4 kts | 147° |
| 2026-04-27 12:43 | 52.30368 | 4.76583 | -1 ft | 7 kts | 142° |
| 2026-04-27 12:43 | 52.30349 | 4.76638 | -1 ft | 4 kts | 89° |
| 2026-04-27 12:43 | 52.30378 | 4.76741 | -1 ft | 13 kts | 59° |
| 2026-04-27 12:44 | 52.30430 | 4.76875 | -1 ft | 15 kts | 58° |
| 2026-04-27 12:44 | 52.30490 | 4.77030 | -1 ft | 17 kts | 58° |
| 2026-04-27 12:44 | 52.30554 | 4.77196 | -1 ft | 18 kts | 58° |
| 2026-04-27 12:44 | 52.30623 | 4.77375 | -1 ft | 19 kts | 58° |
| 2026-04-27 12:45 | 52.30733 | 4.77461 | -1 ft | 19 kts | 3° |
| 2026-04-27 12:45 | 52.30871 | 4.77470 | -1 ft | 21 kts | 4° |
| 2026-04-27 12:45 | 52.30976 | 4.77481 | -1 ft | 15 kts | 4° |
| 2026-04-27 12:45 | 52.31088 | 4.77492 | -1 ft | 17 kts | 2° |
| 2026-04-27 12:46 | 52.31211 | 4.77502 | -1 ft | 18 kts | 3° |
| 2026-04-27 12:46 | 52.31327 | 4.77437 | -1 ft | 18 kts | 319° |
| 2026-04-27 12:46 | 52.31394 | 4.77318 | -1 ft | 8 kts | 310° |
| 2026-04-27 12:46 | 52.31429 | 4.77252 | -1 ft | 7 kts | 310° |
| 2026-04-27 12:47 | 52.31466 | 4.77178 | -1 ft | 12 kts | 306° |
| 2026-04-27 12:47 | 52.31484 | 4.77022 | -1 ft | 22 kts | 266° |
| 2026-04-27 12:47 | 52.31473 | 4.76748 | -1 ft | 25 kts | 267° |
| 2026-04-27 12:47 | 52.31464 | 4.76457 | -1 ft | 26 kts | 266° |
| 2026-04-27 12:48 | 52.31452 | 4.76151 | -1 ft | 27 kts | 266° |
| 2026-04-27 12:48 | 52.31441 | 4.75832 | -1 ft | 29 kts | 267° |
| 2026-04-27 12:48 | 52.31430 | 4.75544 | -1 ft | 22 kts | 266° |
| 2026-04-27 12:48 | 52.31421 | 4.75301 | -1 ft | 21 kts | 266° |
| 2026-04-27 12:49 | 52.31412 | 4.75052 | -1 ft | 22 kts | 267° |
| 2026-04-27 12:49 | 52.31405 | 4.74794 | -1 ft | 23 kts | 267° |
| 2026-04-27 12:49 | 52.31397 | 4.74521 | -1 ft | 25 kts | 267° |
| 2026-04-27 12:49 | 52.31408 | 4.74327 | -1 ft | 12 kts | 329° |
| 2026-04-27 12:50 | 52.31485 | 4.74291 | -1 ft | 12 kts | 4° |
| 2026-04-27 12:50 | 52.31579 | 4.74303 | -1 ft | 15 kts | 2° |
| 2026-04-27 12:50 | 52.31689 | 4.74311 | -1 ft | 17 kts | 3° |
| 2026-04-27 12:50 | 52.31809 | 4.74323 | -1 ft | 18 kts | 4° |
| 2026-04-27 12:51 | 52.31940 | 4.74334 | -1 ft | 20 kts | 3° |
| 2026-04-27 12:51 | 52.32033 | 4.74227 | -1 ft | 19 kts | 272° |
| 2026-04-27 12:51 | 52.32036 | 4.74012 | -2 ft | 19 kts | 271° |
| 2026-04-27 12:51 | 52.32041 | 4.73802 | -1 ft | 17 kts | 278° |
| 2026-04-27 12:52 | 52.32053 | 4.73580 | -1 ft | 21 kts | 271° |
| 2026-04-27 12:52 | 52.32095 | 4.73348 | -1 ft | 22 kts | 312° |
| 2026-04-27 12:52 | 52.32215 | 4.73178 | -1 ft | 23 kts | 319° |
| 2026-04-27 12:52 | 52.32342 | 4.72999 | -1 ft | 25 kts | 320° |
| 2026-04-27 12:53 | 52.32616 | 4.72615 | -1 ft | 27 kts | 319° |
| 2026-04-27 12:53 | 52.32749 | 4.72392 | -1 ft | 28 kts | 311° |
| 2026-04-27 12:53 | 52.32870 | 4.72167 | -1 ft | 23 kts | 311° |
| 2026-04-27 12:54 | 52.32981 | 4.71961 | -1 ft | 25 kts | 311° |
| 2026-04-27 12:54 | 52.33098 | 4.71745 | -1 ft | 26 kts | 311° |
| 2026-04-27 12:54 | 52.33131 | 4.71481 | -1 ft | 24 kts | 266° |
| 2026-04-27 12:54 | 52.33194 | 4.71322 | -1 ft | 10 kts | 309° |
| 2026-04-27 12:55 | 52.33231 | 4.71240 | -1 ft | 8 kts | 308° |
| 2026-04-27 12:55 | 52.33268 | 4.71171 | -1 ft | 10 kts | 312° |
| 2026-04-27 12:55 | 52.33334 | 4.71051 | -2 ft | 15 kts | 313° |
| 2026-04-27 12:55 | 52.33417 | 4.70949 | -2 ft | 15 kts | 343° |
| 2026-04-27 12:56 | 52.33470 | 4.70947 | -2 ft | 0 kts | 2° |
| 2026-04-27 12:58 | 52.33555 | 4.70954 | -1 ft | 41 kts | 3° |
| 2026-04-27 12:58 | 52.34078 | 4.71005 | -4 ft | 107 kts | 4° |
| 2026-04-27 12:58 | 52.35003 | 4.71090 | 0 ft | 157 kts | 3° |
| 2026-04-27 12:58 | 52.36127 | 4.71181 | 532 ft | 158 kts | 4° |
| 2026-04-27 12:59 | 52.37219 | 4.71260 | 1261 ft | 155 kts | 4° |
| 2026-04-27 12:59 | 52.38339 | 4.71336 | 1799 ft | 168 kts | 5° |
| 2026-04-27 12:59 | 52.39582 | 4.71459 | 2143 ft | 190 kts | 5° |
| 2026-04-27 12:59 | 52.40976 | 4.71615 | 2474 ft | 210 kts | 5° |
| 2026-04-27 13:00 | 52.42466 | 4.72172 | 2908 ft | 228 kts | 24° |
| 2026-04-27 13:00 | 52.43922 | 4.73459 | 3404 ft | 248 kts | 29° |
| 2026-04-27 13:00 | 52.45447 | 4.74871 | 4195 ft | 254 kts | 30° |
| 2026-04-27 13:00 | 52.46841 | 4.76697 | 5052 ft | 260 kts | 47° |
| 2026-04-27 13:01 | 52.47814 | 4.79171 | 5874 ft | 266 kts | 65° |
| 2026-04-27 13:01 | 52.48278 | 4.82184 | 6743 ft | 272 kts | 83° |
| 2026-04-27 13:01 | 52.48432 | 4.85258 | 7545 ft | 276 kts | 84° |
| 2026-04-27 13:01 | 52.48383 | 4.88434 | 8314 ft | 283 kts | 100° |
| 2026-04-27 13:02 | 52.47720 | 4.91504 | 9066 ft | 290 kts | 120° |
| 2026-04-27 13:02 | 52.46467 | 4.94103 | 9818 ft | 294 kts | 140° |
| 2026-04-27 13:02 | 52.44815 | 4.96095 | 10595 ft | 297 kts | 147° |
| 2026-04-27 13:02 | 52.43053 | 4.98115 | 10831 ft | 321 kts | 146° |
| 2026-04-27 13:03 | 52.41161 | 5.00298 | 11026 ft | 344 kts | 146° |
| 2026-04-27 13:03 | 52.39138 | 5.02634 | 11157 ft | 366 kts | 146° |
| 2026-04-27 13:03 | 52.36995 | 5.05111 | 11291 ft | 387 kts | 146° |
| 2026-04-27 13:03 | 52.34759 | 5.07704 | 11614 ft | 399 kts | 145° |
| 2026-04-27 13:04 | 52.32655 | 5.10718 | 12186 ft | 404 kts | 134° |
| 2026-04-27 13:04 | 52.30771 | 5.14162 | 12841 ft | 407 kts | 133° |
| 2026-04-27 13:04 | 52.28892 | 5.17601 | 13465 ft | 411 kts | 133° |
| 2026-04-27 13:04 | 52.26980 | 5.21071 | 14184 ft | 410 kts | 133° |
| 2026-04-27 13:05 | 52.25070 | 5.24524 | 14914 ft | 409 kts | 133° |
| 2026-04-27 13:05 | 52.23328 | 5.28181 | 15646 ft | 408 kts | 127° |
| 2026-04-27 13:05 | 52.21690 | 5.31954 | 16406 ft | 406 kts | 127° |
| 2026-04-27 13:05 | 52.20062 | 5.35705 | 17174 ft | 404 kts | 127° |
| 2026-04-27 13:06 | 52.18442 | 5.39438 | 17974 ft | 402 kts | 127° |
| 2026-04-27 13:06 | 52.16830 | 5.43149 | 18768 ft | 399 kts | 127° |
| 2026-04-27 13:06 | 52.15231 | 5.46823 | 19459 ft | 396 kts | 127° |
| 2026-04-27 13:06 | 52.13641 | 5.50463 | 20177 ft | 394 kts | 128° |
| 2026-04-27 13:07 | 52.12042 | 5.54112 | 20684 ft | 398 kts | 128° |
| 2026-04-27 13:07 | 52.10426 | 5.57792 | 21194 ft | 401 kts | 128° |
| 2026-04-27 13:07 | 52.08800 | 5.61495 | 21710 ft | 404 kts | 128° |
| 2026-04-27 13:07 | 52.07158 | 5.65236 | 22239 ft | 407 kts | 128° |
| 2026-04-27 13:08 | 52.05437 | 5.68886 | 22776 ft | 408 kts | 134° |
| 2026-04-27 13:08 | 52.03571 | 5.72376 | 23327 ft | 409 kts | 134° |
| 2026-04-27 13:08 | 52.01697 | 5.75863 | 23866 ft | 411 kts | 134° |
| 2026-04-27 13:08 | 51.99807 | 5.79376 | 24335 ft | 413 kts | 134° |
| 2026-04-27 13:09 | 51.97914 | 5.82891 | 24809 ft | 414 kts | 134° |
| 2026-04-27 13:09 | 51.96016 | 5.86422 | 25291 ft | 416 kts | 134° |
| 2026-04-27 13:09 | 51.94122 | 5.89960 | 25778 ft | 416 kts | 135° |
| 2026-04-27 13:09 | 51.92224 | 5.93506 | 26277 ft | 417 kts | 135° |
| 2026-04-27 13:10 | 51.90325 | 5.97054 | 26786 ft | 417 kts | 135° |
| 2026-04-27 13:10 | 51.89063 | 5.99410 | 27107 ft | 417 kts | 135° |
| 2026-04-27 13:10 | 51.86544 | 6.04114 | 27809 ft | 416 kts | 135° |
| 2026-04-27 13:10 | 51.84642 | 6.07653 | 28341 ft | 416 kts | 135° |
| 2026-04-27 13:11 | 51.82738 | 6.11160 | 28882 ft | 414 kts | 136° |
| 2026-04-27 13:11 | 51.81450 | 6.13516 | 29258 ft | 413 kts | 136° |
| 2026-04-27 13:11 | 51.79545 | 6.16993 | 29823 ft | 412 kts | 136° |
| 2026-04-27 13:11 | 51.77678 | 6.20400 | 30380 ft | 409 kts | 136° |
| 2026-04-27 13:12 | 51.75798 | 6.23830 | 30869 ft | 406 kts | 136° |
| 2026-04-27 13:12 | 51.73933 | 6.27239 | 31372 ft | 403 kts | 136° |
| 2026-04-27 13:12 | 51.72089 | 6.30608 | 31870 ft | 399 kts | 136° |
| 2026-04-27 13:12 | 51.70260 | 6.33945 | 32324 ft | 396 kts | 137° |
| 2026-04-27 13:13 | 51.68426 | 6.37273 | 32638 ft | 398 kts | 137° |
| 2026-04-27 13:13 | 51.66583 | 6.40605 | 32940 ft | 399 kts | 137° |
| 2026-04-27 13:13 | 51.64727 | 6.43960 | 33231 ft | 401 kts | 137° |
| 2026-04-27 13:13 | 51.62867 | 6.47328 | 33490 ft | 403 kts | 137° |
| 2026-04-27 13:14 | 51.61001 | 6.50704 | 33786 ft | 404 kts | 137° |
| 2026-04-27 13:14 | 51.59128 | 6.54088 | 34070 ft | 406 kts | 137° |
| 2026-04-27 13:14 | 51.57248 | 6.57478 | 34324 ft | 407 kts | 137° |
| 2026-04-27 13:14 | 51.55358 | 6.60881 | 34546 ft | 409 kts | 137° |
| 2026-04-27 13:15 | 51.53460 | 6.64300 | 34767 ft | 410 kts | 137° |
| 2026-04-27 13:15 | 51.51558 | 6.67725 | 34978 ft | 412 kts | 136° |
| 2026-04-27 13:15 | 51.49650 | 6.71163 | 35169 ft | 414 kts | 136° |
| 2026-04-27 13:15 | 51.47719 | 6.74631 | 35251 ft | 420 kts | 136° |
| 2026-04-27 13:16 | 51.43752 | 6.81716 | 35259 ft | 434 kts | 136° |
| 2026-04-27 13:16 | 51.39391 | 6.88498 | 35259 ft | 440 kts | 148° |
| 2026-04-27 13:17 | 51.34259 | 6.93849 | 35251 ft | 448 kts | 153° |
| 2026-04-27 13:17 | 51.28871 | 6.99252 | 35248 ft | 460 kts | 153° |
| 2026-04-27 13:18 | 51.23425 | 7.04723 | 35248 ft | 471 kts | 153° |
| 2026-04-27 13:18 | 51.17837 | 7.10322 | 35241 ft | 476 kts | 153° |
| 2026-04-27 13:19 | 51.12217 | 7.15937 | 35230 ft | 477 kts | 153° |
| 2026-04-27 13:19 | 51.06584 | 7.21540 | 35224 ft | 478 kts | 153° |
| 2026-04-27 13:20 | 51.00946 | 7.27129 | 35223 ft | 478 kts | 153° |